sensor_id;sensor_type;location;lat;lon;timestamp;temperature;humidity
18658;DHT22;9458;50.942;5.074;2022-12-07T00:01:08;6.80;99.90
18658;DHT22;9458;50.942;5.074;2022-12-07T00:03:38;6.80;99.90
18658;DHT22;9458;50.942;5.074;2022-12-07T00:06:08;6.80;99.90
18658;DHT22;9458;50.942;5.074;2022-12-07T00:08:37;6.80;99.90
18658;DHT22;9458;50.942;5.074;2022-12-07T00:11:09;6.80;99.90
18658;DHT22;9458;50.942;5.074;2022-12-07T00:13:38;6.70;99.90
18658;DHT22;9458;50.942;5.074;2022-12-07T00:16:09;6.70;99.90
18658;DHT22;9458;50.942;5.074;2022-12-07T00:18:38;6.70;99.90
18658;DHT22;9458;50.942;5.074;2022-12-07T00:21:09;6.70;99.90
18658;DHT22;9458;50.942;5.074;2022-12-07T00:23:37;6.60;99.90
18658;DHT22;9458;50.942;5.074;2022-12-07T00:26:08;6.60;99.90
18658;DHT22;9458;50.942;5.074;2022-12-07T00:28:37;6.60;99.90
18658;DHT22;9458;50.942;5.074;2022-12-07T00:31:07;6.60;99.90
18658;DHT22;9458;50.942;5.074;2022-12-07T00:33:35;6.60;99.90
18658;DHT22;9458;50.942;5.074;2022-12-07T00:36:07;6.60;99.90
18658;DHT22;9458;50.942;5.074;2022-12-07T00:38:36;6.60;99.90
18658;DHT22;9458;50.942;5.074;2022-12-07T00:41:08;6.70;99.90
18658;DHT22;9458;50.942;5.074;2022-12-07T00:43:36;6.70;99.90
18658;DHT22;9458;50.942;5.074;2022-12-07T00:46:05;6.70;99.90
18658;DHT22;9458;50.942;5.074;2022-12-07T00:48:33;6.70;99.90
18658;DHT22;9458;50.942;5.074;2022-12-07T00:51:04;6.70;99.90
18658;DHT22;9458;50.942;5.074;2022-12-07T00:53:34;6.70;99.90
18658;DHT22;9458;50.942;5.074;2022-12-07T00:56:07;6.80;99.90
18658;DHT22;9458;50.942;5.074;2022-12-07T00:58:35;6.80;99.90
18658;DHT22;9458;50.942;5.074;2022-12-07T01:01:05;6.80;99.90
18658;DHT22;9458;50.942;5.074;2022-12-07T01:03:35;6.90;99.90
18658;DHT22;9458;50.942;5.074;2022-12-07T01:06:14;6.90;99.90
18658;DHT22;9458;50.942;5.074;2022-12-07T01:08:43;6.80;99.90
18658;DHT22;9458;50.942;5.074;2022-12-07T01:11:16;6.80;99.90
18658;DHT22;9458;50.942;5.074;2022-12-07T01:13:45;6.90;99.90
18658;DHT22;9458;50.942;5.074;2022-12-07T01:16:14;6.80;99.90
18658;DHT22;9458;50.942;5.074;2022-12-07T01:18:55;6.80;99.90
18658;DHT22;9458;50.942;5.074;2022-12-07T01:21:25;6.90;99.90
18658;DHT22;9458;50.942;5.074;2022-12-07T01:23:53;6.90;99.90
18658;DHT22;9458;50.942;5.074;2022-12-07T01:26:25;6.90;99.90
18658;DHT22;9458;50.942;5.074;2022-12-07T01:28:56;6.90;99.90
18658;DHT22;9458;50.942;5.074;2022-12-07T01:31:27;6.90;99.90
18658;DHT22;9458;50.942;5.074;2022-12-07T01:33:57;6.90;99.90
18658;DHT22;9458;50.942;5.074;2022-12-07T01:36:29;6.90;99.90
18658;DHT22;9458;50.942;5.074;2022-12-07T01:38:58;6.90;99.90
18658;DHT22;9458;50.942;5.074;2022-12-07T01:41:29;6.90;99.90
18658;DHT22;9458;50.942;5.074;2022-12-07T01:44:12;6.90;99.90
18658;DHT22;9458;50.942;5.074;2022-12-07T01:46:44;6.90;99.90
18658;DHT22;9458;50.942;5.074;2022-12-07T01:49:24;6.80;99.90
18658;DHT22;9458;50.942;5.074;2022-12-07T01:52:03;6.80;99.90
18658;DHT22;9458;50.942;5.074;2022-12-07T01:54:36;6.80;99.90
18658;DHT22;9458;50.942;5.074;2022-12-07T01:57:08;6.80;99.90
18658;DHT22;9458;50.942;5.074;2022-12-07T01:59:41;6.80;99.90
18658;DHT22;9458;50.942;5.074;2022-12-07T02:02:16;6.70;99.90
18658;DHT22;9458;50.942;5.074;2022-12-07T02:04:45;6.70;99.90
18658;DHT22;9458;50.942;5.074;2022-12-07T02:07:13;6.70;99.90
18658;DHT22;9458;50.942;5.074;2022-12-07T02:09:41;6.70;99.90
18658;DHT22;9458;50.942;5.074;2022-12-07T02:12:10;6.60;99.90
18658;DHT22;9458;50.942;5.074;2022-12-07T02:14:38;6.60;99.90
18658;DHT22;9458;50.942;5.074;2022-12-07T02:17:13;6.60;99.90
18658;DHT22;9458;50.942;5.074;2022-12-07T02:20:08;6.60;99.90
18658;DHT22;9458;50.942;5.074;2022-12-07T02:23:00;6.60;99.90
18658;DHT22;9458;50.942;5.074;2022-12-07T02:25:41;6.60;99.90
18658;DHT22;9458;50.942;5.074;2022-12-07T02:28:27;6.60;99.90
18658;DHT22;9458;50.942;5.074;2022-12-07T02:31:02;6.60;99.90
18658;DHT22;9458;50.942;5.074;2022-12-07T02:33:36;6.50;99.90
18658;DHT22;9458;50.942;5.074;2022-12-07T02:36:07;6.50;99.90
18658;DHT22;9458;50.942;5.074;2022-12-07T02:38:43;6.50;99.90
18658;DHT22;9458;50.942;5.074;2022-12-07T02:41:16;6.50;99.90
18658;DHT22;9458;50.942;5.074;2022-12-07T02:43:48;6.40;99.90
18658;DHT22;9458;50.942;5.074;2022-12-07T02:46:22;6.50;99.90
18658;DHT22;9458;50.942;5.074;2022-12-07T02:48:51;6.50;99.90
18658;DHT22;9458;50.942;5.074;2022-12-07T02:51:21;6.50;99.90
18658;DHT22;9458;50.942;5.074;2022-12-07T02:53:49;6.50;99.90
18658;DHT22;9458;50.942;5.074;2022-12-07T02:56:24;6.60;99.90
18658;DHT22;9458;50.942;5.074;2022-12-07T02:58:59;6.60;99.90
18658;DHT22;9458;50.942;5.074;2022-12-07T03:01:39;6.60;99.90
18658;DHT22;9458;50.942;5.074;2022-12-07T03:04:21;6.60;99.90
18658;DHT22;9458;50.942;5.074;2022-12-07T03:06:56;6.60;99.90
18658;DHT22;9458;50.942;5.074;2022-12-07T03:09:28;6.60;99.90
18658;DHT22;9458;50.942;5.074;2022-12-07T03:12:04;6.60;99.90
18658;DHT22;9458;50.942;5.074;2022-12-07T03:14:36;6.60;99.90
18658;DHT22;9458;50.942;5.074;2022-12-07T03:17:12;6.60;99.90
18658;DHT22;9458;50.942;5.074;2022-12-07T03:19:41;6.60;99.90
18658;DHT22;9458;50.942;5.074;2022-12-07T03:22:12;6.60;99.90
18658;DHT22;9458;50.942;5.074;2022-12-07T03:24:43;6.70;99.90
18658;DHT22;9458;50.942;5.074;2022-12-07T03:27:16;6.70;99.90
18658;DHT22;9458;50.942;5.074;2022-12-07T03:29:51;6.70;99.90
18658;DHT22;9458;50.942;5.074;2022-12-07T03:32:25;6.70;99.90
18658;DHT22;9458;50.942;5.074;2022-12-07T03:34:58;6.70;99.90
18658;DHT22;9458;50.942;5.074;2022-12-07T03:37:33;6.70;99.90
18658;DHT22;9458;50.942;5.074;2022-12-07T03:40:06;6.70;99.90
18658;DHT22;9458;50.942;5.074;2022-12-07T03:42:35;6.70;99.90
18658;DHT22;9458;50.942;5.074;2022-12-07T03:45:04;6.60;99.90
18658;DHT22;9458;50.942;5.074;2022-12-07T03:47:39;6.60;99.90
18658;DHT22;9458;50.942;5.074;2022-12-07T03:50:15;6.60;99.90
18658;DHT22;9458;50.942;5.074;2022-12-07T03:52:51;6.60;99.90
18658;DHT22;9458;50.942;5.074;2022-12-07T03:55:24;6.60;99.90
18658;DHT22;9458;50.942;5.074;2022-12-07T03:57:55;6.60;99.90
18658;DHT22;9458;50.942;5.074;2022-12-07T04:00:26;6.60;99.90
18658;DHT22;9458;50.942;5.074;2022-12-07T04:02:56;6.60;99.90
18658;DHT22;9458;50.942;5.074;2022-12-07T04:05:24;6.50;99.90
18658;DHT22;9458;50.942;5.074;2022-12-07T04:07:52;6.50;99.90
18658;DHT22;9458;50.942;5.074;2022-12-07T04:10:21;6.50;99.90
18658;DHT22;9458;50.942;5.074;2022-12-07T04:12:49;6.50;99.90
18658;DHT22;9458;50.942;5.074;2022-12-07T04:15:16;6.40;99.90
18658;DHT22;9458;50.942;5.074;2022-12-07T04:17:46;6.40;99.90
18658;DHT22;9458;50.942;5.074;2022-12-07T04:20:15;6.30;99.90
18658;DHT22;9458;50.942;5.074;2022-12-07T04:22:42;6.30;99.90
18658;DHT22;9458;50.942;5.074;2022-12-07T04:25:10;6.20;99.90
18658;DHT22;9458;50.942;5.074;2022-12-07T04:27:39;6.20;99.90
18658;DHT22;9458;50.942;5.074;2022-12-07T04:30:09;6.20;99.90
18658;DHT22;9458;50.942;5.074;2022-12-07T04:32:37;6.10;99.90
18658;DHT22;9458;50.942;5.074;2022-12-07T04:35:06;6.10;99.90
18658;DHT22;9458;50.942;5.074;2022-12-07T04:37:35;6.10;99.90
18658;DHT22;9458;50.942;5.074;2022-12-07T04:40:07;6.10;99.90
18658;DHT22;9458;50.942;5.074;2022-12-07T04:42:38;6.20;99.90
18658;DHT22;9458;50.942;5.074;2022-12-07T04:45:06;6.20;99.90
18658;DHT22;9458;50.942;5.074;2022-12-07T04:47:35;6.20;99.90
18658;DHT22;9458;50.942;5.074;2022-12-07T04:50:02;6.30;99.90
18658;DHT22;9458;50.942;5.074;2022-12-07T04:52:30;6.30;99.90
18658;DHT22;9458;50.942;5.074;2022-12-07T04:54:59;6.30;99.90
18658;DHT22;9458;50.942;5.074;2022-12-07T04:57:27;6.20;99.90
18658;DHT22;9458;50.942;5.074;2022-12-07T04:59:55;6.20;99.90
18658;DHT22;9458;50.942;5.074;2022-12-07T05:02:22;6.20;99.90
18658;DHT22;9458;50.942;5.074;2022-12-07T05:04:50;6.20;99.90
18658;DHT22;9458;50.942;5.074;2022-12-07T05:07:18;6.10;99.90
18658;DHT22;9458;50.942;5.074;2022-12-07T05:09:47;6.00;99.90
18658;DHT22;9458;50.942;5.074;2022-12-07T05:12:16;6.10;99.90
18658;DHT22;9458;50.942;5.074;2022-12-07T05:14:43;6.10;99.90
18658;DHT22;9458;50.942;5.074;2022-12-07T05:17:11;6.10;99.90
18658;DHT22;9458;50.942;5.074;2022-12-07T05:19:38;6.10;99.90
18658;DHT22;9458;50.942;5.074;2022-12-07T05:22:06;6.20;99.90
18658;DHT22;9458;50.942;5.074;2022-12-07T05:24:33;6.20;99.90
18658;DHT22;9458;50.942;5.074;2022-12-07T05:27:01;6.20;99.90
18658;DHT22;9458;50.942;5.074;2022-12-07T05:29:30;6.30;99.90
18658;DHT22;9458;50.942;5.074;2022-12-07T05:31:57;6.30;99.90
18658;DHT22;9458;50.942;5.074;2022-12-07T05:34:26;6.30;99.90
18658;DHT22;9458;50.942;5.074;2022-12-07T05:36:54;6.30;99.90
18658;DHT22;9458;50.942;5.074;2022-12-07T05:39:21;6.30;99.90
18658;DHT22;9458;50.942;5.074;2022-12-07T05:41:49;6.30;99.90
18658;DHT22;9458;50.942;5.074;2022-12-07T05:44:36;6.30;99.90
18658;DHT22;9458;50.942;5.074;2022-12-07T05:47:04;6.30;99.90
18658;DHT22;9458;50.942;5.074;2022-12-07T05:49:33;6.30;99.90
18658;DHT22;9458;50.942;5.074;2022-12-07T05:52:01;6.30;99.90
18658;DHT22;9458;50.942;5.074;2022-12-07T05:54:30;6.30;99.90
18658;DHT22;9458;50.942;5.074;2022-12-07T05:56:59;6.30;99.90
18658;DHT22;9458;50.942;5.074;2022-12-07T05:59:26;6.30;99.90
18658;DHT22;9458;50.942;5.074;2022-12-07T06:01:57;6.30;99.90
18658;DHT22;9458;50.942;5.074;2022-12-07T06:04:26;6.30;99.90
18658;DHT22;9458;50.942;5.074;2022-12-07T06:06:55;6.30;99.90
18658;DHT22;9458;50.942;5.074;2022-12-07T06:09:24;6.40;99.90
18658;DHT22;9458;50.942;5.074;2022-12-07T06:11:53;6.40;99.90
18658;DHT22;9458;50.942;5.074;2022-12-07T06:14:38;6.40;99.90
18658;DHT22;9458;50.942;5.074;2022-12-07T06:17:07;6.40;99.90
18658;DHT22;9458;50.942;5.074;2022-12-07T06:19:35;6.40;99.90
18658;DHT22;9458;50.942;5.074;2022-12-07T06:22:04;6.40;99.90
18658;DHT22;9458;50.942;5.074;2022-12-07T06:24:32;6.40;99.90
18658;DHT22;9458;50.942;5.074;2022-12-07T06:27:00;6.40;99.90
18658;DHT22;9458;50.942;5.074;2022-12-07T06:29:28;6.40;99.90
18658;DHT22;9458;50.942;5.074;2022-12-07T06:31:55;6.40;99.90
18658;DHT22;9458;50.942;5.074;2022-12-07T06:34:26;6.40;99.90
18658;DHT22;9458;50.942;5.074;2022-12-07T06:36:54;6.40;99.90
18658;DHT22;9458;50.942;5.074;2022-12-07T06:39:25;6.40;99.90
18658;DHT22;9458;50.942;5.074;2022-12-07T06:41:54;6.40;99.90
18658;DHT22;9458;50.942;5.074;2022-12-07T06:44:22;6.40;99.90
18658;DHT22;9458;50.942;5.074;2022-12-07T06:46:51;6.40;99.90
18658;DHT22;9458;50.942;5.074;2022-12-07T06:49:18;6.40;99.90
18658;DHT22;9458;50.942;5.074;2022-12-07T06:51:48;6.30;99.90
18658;DHT22;9458;50.942;5.074;2022-12-07T06:54:17;6.30;99.90
18658;DHT22;9458;50.942;5.074;2022-12-07T06:56:45;6.30;99.90
18658;DHT22;9458;50.942;5.074;2022-12-07T06:59:14;6.30;99.90
18658;DHT22;9458;50.942;5.074;2022-12-07T07:01:42;6.30;99.90
18658;DHT22;9458;50.942;5.074;2022-12-07T07:04:12;6.20;99.90
18658;DHT22;9458;50.942;5.074;2022-12-07T07:06:39;6.20;99.90
18658;DHT22;9458;50.942;5.074;2022-12-07T07:09:09;6.20;99.90
18658;DHT22;9458;50.942;5.074;2022-12-07T07:11:36;6.20;99.90
18658;DHT22;9458;50.942;5.074;2022-12-07T07:14:04;6.20;99.90
18658;DHT22;9458;50.942;5.074;2022-12-07T07:16:32;6.20;99.90
18658;DHT22;9458;50.942;5.074;2022-12-07T07:18:59;6.20;99.90
18658;DHT22;9458;50.942;5.074;2022-12-07T07:21:27;6.20;99.90
18658;DHT22;9458;50.942;5.074;2022-12-07T07:23:54;6.20;99.90
18658;DHT22;9458;50.942;5.074;2022-12-07T07:26:24;6.20;99.90
18658;DHT22;9458;50.942;5.074;2022-12-07T07:28:51;6.20;99.90
18658;DHT22;9458;50.942;5.074;2022-12-07T07:31:19;6.20;99.90
18658;DHT22;9458;50.942;5.074;2022-12-07T07:33:46;6.20;99.90
18658;DHT22;9458;50.942;5.074;2022-12-07T07:36:14;6.10;99.90
18658;DHT22;9458;50.942;5.074;2022-12-07T07:38:41;6.10;99.90
18658;DHT22;9458;50.942;5.074;2022-12-07T07:41:08;6.10;99.90
18658;DHT22;9458;50.942;5.074;2022-12-07T07:43:38;6.10;99.90
18658;DHT22;9458;50.942;5.074;2022-12-07T07:46:05;6.10;99.90
18658;DHT22;9458;50.942;5.074;2022-12-07T07:48:33;6.10;99.90
18658;DHT22;9458;50.942;5.074;2022-12-07T07:51:00;6.00;99.90
18658;DHT22;9458;50.942;5.074;2022-12-07T07:53:27;6.00;99.90
18658;DHT22;9458;50.942;5.074;2022-12-07T07:55:55;6.10;99.90
18658;DHT22;9458;50.942;5.074;2022-12-07T07:58:22;6.10;99.90
18658;DHT22;9458;50.942;5.074;2022-12-07T08:00:52;6.10;99.90
18658;DHT22;9458;50.942;5.074;2022-12-07T08:03:21;6.20;99.90
18658;DHT22;9458;50.942;5.074;2022-12-07T08:05:49;6.20;99.90
18658;DHT22;9458;50.942;5.074;2022-12-07T08:08:17;6.60;99.90
18658;DHT22;9458;50.942;5.074;2022-12-07T08:10:45;7.20;99.90
18658;DHT22;9458;50.942;5.074;2022-12-07T08:13:13;7.70;99.90
18658;DHT22;9458;50.942;5.074;2022-12-07T08:15:43;8.10;99.90
18658;DHT22;9458;50.942;5.074;2022-12-07T08:18:14;8.40;99.90
18658;DHT22;9458;50.942;5.074;2022-12-07T08:20:42;8.70;99.90
18658;DHT22;9458;50.942;5.074;2022-12-07T08:23:12;8.90;99.90
18658;DHT22;9458;50.942;5.074;2022-12-07T08:25:40;9.10;99.90
18658;DHT22;9458;50.942;5.074;2022-12-07T08:28:07;9.10;99.90
18658;DHT22;9458;50.942;5.074;2022-12-07T08:30:35;9.40;99.90
18658;DHT22;9458;50.942;5.074;2022-12-07T08:33:04;9.70;99.90
18658;DHT22;9458;50.942;5.074;2022-12-07T08:35:34;9.90;99.90
18658;DHT22;9458;50.942;5.074;2022-12-07T08:38:01;10.20;99.90
18658;DHT22;9458;50.942;5.074;2022-12-07T08:40:30;10.50;99.90
18658;DHT22;9458;50.942;5.074;2022-12-07T08:42:58;10.90;99.90
18658;DHT22;9458;50.942;5.074;2022-12-07T08:45:26;11.10;99.90
18658;DHT22;9458;50.942;5.074;2022-12-07T08:47:57;11.00;99.90
18658;DHT22;9458;50.942;5.074;2022-12-07T08:50:26;10.80;99.90
18658;DHT22;9458;50.942;5.074;2022-12-07T08:52:59;10.60;99.90
18658;DHT22;9458;50.942;5.074;2022-12-07T08:55:27;10.60;99.90
18658;DHT22;9458;50.942;5.074;2022-12-07T08:57:57;10.30;99.90
18658;DHT22;9458;50.942;5.074;2022-12-07T09:00:25;10.00;99.90
18658;DHT22;9458;50.942;5.074;2022-12-07T09:02:53;9.80;99.90
18658;DHT22;9458;50.942;5.074;2022-12-07T09:05:21;9.60;99.90
18658;DHT22;9458;50.942;5.074;2022-12-07T09:07:51;9.40;99.90
18658;DHT22;9458;50.942;5.074;2022-12-07T09:10:24;9.30;99.90
18658;DHT22;9458;50.942;5.074;2022-12-07T09:12:52;9.00;99.90
18658;DHT22;9458;50.942;5.074;2022-12-07T09:15:20;8.80;99.90
18658;DHT22;9458;50.942;5.074;2022-12-07T09:17:48;8.60;99.90
18658;DHT22;9458;50.942;5.074;2022-12-07T09:20:16;8.50;99.90
18658;DHT22;9458;50.942;5.074;2022-12-07T09:22:44;8.40;99.90
18658;DHT22;9458;50.942;5.074;2022-12-07T09:25:12;8.30;99.90
18658;DHT22;9458;50.942;5.074;2022-12-07T09:27:41;8.20;99.90
18658;DHT22;9458;50.942;5.074;2022-12-07T09:30:09;8.20;99.90
18658;DHT22;9458;50.942;5.074;2022-12-07T09:32:38;8.20;99.90
18658;DHT22;9458;50.942;5.074;2022-12-07T09:35:06;8.10;99.90
18658;DHT22;9458;50.942;5.074;2022-12-07T09:37:34;8.10;99.90
18658;DHT22;9458;50.942;5.074;2022-12-07T09:40:04;8.10;99.90
18658;DHT22;9458;50.942;5.074;2022-12-07T09:42:34;8.10;99.90
18658;DHT22;9458;50.942;5.074;2022-12-07T09:45:12;8.10;99.90
18658;DHT22;9458;50.942;5.074;2022-12-07T09:47:41;8.10;99.90
18658;DHT22;9458;50.942;5.074;2022-12-07T09:50:14;8.20;99.90
18658;DHT22;9458;50.942;5.074;2022-12-07T09:52:43;8.40;99.90
18658;DHT22;9458;50.942;5.074;2022-12-07T09:55:15;8.40;99.90
18658;DHT22;9458;50.942;5.074;2022-12-07T09:57:43;8.50;99.90
18658;DHT22;9458;50.942;5.074;2022-12-07T10:00:15;8.50;99.90
18658;DHT22;9458;50.942;5.074;2022-12-07T10:02:47;8.40;99.90
18658;DHT22;9458;50.942;5.074;2022-12-07T10:05:16;8.40;99.90
18658;DHT22;9458;50.942;5.074;2022-12-07T10:07:45;8.40;99.90
18658;DHT22;9458;50.942;5.074;2022-12-07T10:10:15;8.40;99.90
18658;DHT22;9458;50.942;5.074;2022-12-07T10:12:54;8.40;99.90
18658;DHT22;9458;50.942;5.074;2022-12-07T10:15:36;8.40;99.90
18658;DHT22;9458;50.942;5.074;2022-12-07T10:18:17;8.40;99.90
18658;DHT22;9458;50.942;5.074;2022-12-07T10:20:47;8.50;99.90
18658;DHT22;9458;50.942;5.074;2022-12-07T10:23:16;8.40;99.90
18658;DHT22;9458;50.942;5.074;2022-12-07T10:25:45;8.40;99.90
18658;DHT22;9458;50.942;5.074;2022-12-07T10:28:16;8.40;99.90
18658;DHT22;9458;50.942;5.074;2022-12-07T10:30:53;8.50;99.90
18658;DHT22;9458;50.942;5.074;2022-12-07T10:33:32;8.50;99.90
18658;DHT22;9458;50.942;5.074;2022-12-07T10:36:16;8.50;99.90
18658;DHT22;9458;50.942;5.074;2022-12-07T10:38:46;8.50;99.90
18658;DHT22;9458;50.942;5.074;2022-12-07T10:41:14;8.60;99.90
18658;DHT22;9458;50.942;5.074;2022-12-07T10:43:50;8.60;99.90
18658;DHT22;9458;50.942;5.074;2022-12-07T10:46:50;8.60;99.90
18658;DHT22;9458;50.942;5.074;2022-12-07T10:50:01;8.60;99.90
18658;DHT22;9458;50.942;5.074;2022-12-07T10:52:52;8.50;99.90
18658;DHT22;9458;50.942;5.074;2022-12-07T10:55:30;8.50;99.90
18658;DHT22;9458;50.942;5.074;2022-12-07T10:58:15;8.50;99.90
18658;DHT22;9458;50.942;5.074;2022-12-07T11:00:51;8.50;99.90
18658;DHT22;9458;50.942;5.074;2022-12-07T11:03:31;8.50;99.90
18658;DHT22;9458;50.942;5.074;2022-12-07T11:06:10;8.60;99.90
18658;DHT22;9458;50.942;5.074;2022-12-07T11:08:52;8.60;99.90
18658;DHT22;9458;50.942;5.074;2022-12-07T11:11:30;8.70;99.90
18658;DHT22;9458;50.942;5.074;2022-12-07T11:14:05;8.70;99.90
18658;DHT22;9458;50.942;5.074;2022-12-07T11:16:49;8.60;99.90
18658;DHT22;9458;50.942;5.074;2022-12-07T11:19:34;8.70;99.90
18658;DHT22;9458;50.942;5.074;2022-12-07T11:22:13;8.70;99.90
18658;DHT22;9458;50.942;5.074;2022-12-07T11:24:49;8.80;99.90
18658;DHT22;9458;50.942;5.074;2022-12-07T11:27:24;8.80;99.90
18658;DHT22;9458;50.942;5.074;2022-12-07T11:30:15;8.80;99.90
18658;DHT22;9458;50.942;5.074;2022-12-07T11:32:55;8.80;99.90
18658;DHT22;9458;50.942;5.074;2022-12-07T11:35:40;8.80;99.90
18658;DHT22;9458;50.942;5.074;2022-12-07T11:38:14;8.90;99.90
18658;DHT22;9458;50.942;5.074;2022-12-07T11:40:46;9.10;99.90
18658;DHT22;9458;50.942;5.074;2022-12-07T11:43:20;9.10;99.90
18658;DHT22;9458;50.942;5.074;2022-12-07T11:45:55;9.10;99.90
18658;DHT22;9458;50.942;5.074;2022-12-07T11:48:30;9.20;99.90
18658;DHT22;9458;50.942;5.074;2022-12-07T11:51:02;9.20;99.90
18658;DHT22;9458;50.942;5.074;2022-12-07T11:53:35;9.30;99.90
18658;DHT22;9458;50.942;5.074;2022-12-07T11:56:09;9.30;99.90
18658;DHT22;9458;50.942;5.074;2022-12-07T11:58:51;9.20;99.90
18658;DHT22;9458;50.942;5.074;2022-12-07T12:01:32;9.20;99.90
18658;DHT22;9458;50.942;5.074;2022-12-07T12:04:16;9.20;99.90
18658;DHT22;9458;50.942;5.074;2022-12-07T12:06:51;9.20;99.90
18658;DHT22;9458;50.942;5.074;2022-12-07T12:09:23;9.20;99.90
18658;DHT22;9458;50.942;5.074;2022-12-07T12:15:03;9.20;99.90
18658;DHT22;9458;50.942;5.074;2022-12-07T12:20:41;9.20;99.90
18658;DHT22;9458;50.942;5.074;2022-12-07T12:23:14;9.10;99.90
18658;DHT22;9458;50.942;5.074;2022-12-07T12:27:01;9.20;99.90
18658;DHT22;9458;50.942;5.074;2022-12-07T12:29:21;9.10;99.90
18658;DHT22;9458;50.942;5.074;2022-12-07T12:32:06;9.00;99.90
18658;DHT22;9458;50.942;5.074;2022-12-07T12:34:40;9.00;99.90
18658;DHT22;9458;50.942;5.074;2022-12-07T12:37:39;9.00;99.90
18658;DHT22;9458;50.942;5.074;2022-12-07T12:40:42;9.00;99.90
18658;DHT22;9458;50.942;5.074;2022-12-07T12:43:48;9.00;99.90
18658;DHT22;9458;50.942;5.074;2022-12-07T12:46:45;9.00;99.90
18658;DHT22;9458;50.942;5.074;2022-12-07T12:49:43;9.00;99.90
18658;DHT22;9458;50.942;5.074;2022-12-07T12:55:53;8.90;99.90
18658;DHT22;9458;50.942;5.074;2022-12-07T12:58:40;8.90;99.90
18658;DHT22;9458;50.942;5.074;2022-12-07T13:01:41;8.90;99.90
18658;DHT22;9458;50.942;5.074;2022-12-07T13:04:40;8.90;99.90
18658;DHT22;9458;50.942;5.074;2022-12-07T13:10:36;9.00;99.90
18658;DHT22;9458;50.942;5.074;2022-12-07T13:13:29;9.00;99.90
18658;DHT22;9458;50.942;5.074;2022-12-07T13:18:58;8.90;99.90
18658;DHT22;9458;50.942;5.074;2022-12-07T13:21:41;9.00;99.90
18658;DHT22;9458;50.942;5.074;2022-12-07T13:24:10;8.90;99.90
18658;DHT22;9458;50.942;5.074;2022-12-07T13:26:42;8.90;99.90
18658;DHT22;9458;50.942;5.074;2022-12-07T13:29:14;8.90;99.90
18658;DHT22;9458;50.942;5.074;2022-12-07T13:31:43;9.00;99.90
18658;DHT22;9458;50.942;5.074;2022-12-07T13:34:37;9.00;99.90
18658;DHT22;9458;50.942;5.074;2022-12-07T13:37:12;9.00;99.90
18658;DHT22;9458;50.942;5.074;2022-12-07T13:39:46;9.00;99.90
18658;DHT22;9458;50.942;5.074;2022-12-07T13:42:22;9.00;99.90
18658;DHT22;9458;50.942;5.074;2022-12-07T13:44:56;9.00;99.90
18658;DHT22;9458;50.942;5.074;2022-12-07T13:47:31;9.00;99.90
18658;DHT22;9458;50.942;5.074;2022-12-07T13:49:59;8.90;99.90
18658;DHT22;9458;50.942;5.074;2022-12-07T13:52:29;8.80;99.90
18658;DHT22;9458;50.942;5.074;2022-12-07T13:55:05;8.80;99.90
18658;DHT22;9458;50.942;5.074;2022-12-07T13:57:40;8.70;99.90
18658;DHT22;9458;50.942;5.074;2022-12-07T14:00:23;8.70;99.90
18658;DHT22;9458;50.942;5.074;2022-12-07T14:03:03;8.60;99.90
18658;DHT22;9458;50.942;5.074;2022-12-07T14:05:33;8.60;99.90
18658;DHT22;9458;50.942;5.074;2022-12-07T14:08:04;8.60;99.90
18658;DHT22;9458;50.942;5.074;2022-12-07T14:10:34;8.60;99.90
18658;DHT22;9458;50.942;5.074;2022-12-07T14:13:29;8.60;99.90
18658;DHT22;9458;50.942;5.074;2022-12-07T14:16:00;8.50;99.90
18658;DHT22;9458;50.942;5.074;2022-12-07T14:18:29;8.60;99.90
18658;DHT22;9458;50.942;5.074;2022-12-07T14:21:04;8.60;99.90
18658;DHT22;9458;50.942;5.074;2022-12-07T14:23:37;8.60;99.90
18658;DHT22;9458;50.942;5.074;2022-12-07T14:26:15;8.50;99.90
18658;DHT22;9458;50.942;5.074;2022-12-07T14:28:43;8.50;99.90
18658;DHT22;9458;50.942;5.074;2022-12-07T14:31:15;8.50;99.90
18658;DHT22;9458;50.942;5.074;2022-12-07T14:33:43;8.50;99.90
18658;DHT22;9458;50.942;5.074;2022-12-07T14:36:12;8.50;99.90
18658;DHT22;9458;50.942;5.074;2022-12-07T14:38:42;8.50;99.90
18658;DHT22;9458;50.942;5.074;2022-12-07T14:41:21;8.50;99.90
18658;DHT22;9458;50.942;5.074;2022-12-07T14:44:16;8.50;99.90
18658;DHT22;9458;50.942;5.074;2022-12-07T14:46:47;8.40;99.90
18658;DHT22;9458;50.942;5.074;2022-12-07T14:49:19;8.40;99.90
18658;DHT22;9458;50.942;5.074;2022-12-07T14:51:47;8.40;99.90
18658;DHT22;9458;50.942;5.074;2022-12-07T14:54:20;8.40;99.90
18658;DHT22;9458;50.942;5.074;2022-12-07T14:56:48;8.40;99.90
18658;DHT22;9458;50.942;5.074;2022-12-07T14:59:22;8.40;99.90
18658;DHT22;9458;50.942;5.074;2022-12-07T15:01:54;8.40;99.90
18658;DHT22;9458;50.942;5.074;2022-12-07T15:04:22;8.40;99.90
18658;DHT22;9458;50.942;5.074;2022-12-07T15:07:04;8.30;99.90
18658;DHT22;9458;50.942;5.074;2022-12-07T15:09:51;8.30;99.90
18658;DHT22;9458;50.942;5.074;2022-12-07T15:12:25;8.10;99.90
18658;DHT22;9458;50.942;5.074;2022-12-07T15:15:04;8.20;99.90
18658;DHT22;9458;50.942;5.074;2022-12-07T15:17:34;8.10;99.90
18658;DHT22;9458;50.942;5.074;2022-12-07T15:20:05;8.10;99.90
18658;DHT22;9458;50.942;5.074;2022-12-07T15:25:32;8.10;99.90
18658;DHT22;9458;50.942;5.074;2022-12-07T15:28:00;8.00;99.90
18658;DHT22;9458;50.942;5.074;2022-12-07T15:30:28;8.10;99.90
18658;DHT22;9458;50.942;5.074;2022-12-07T15:33:06;8.00;99.90
18658;DHT22;9458;50.942;5.074;2022-12-07T15:35:38;8.00;99.90
18658;DHT22;9458;50.942;5.074;2022-12-07T15:38:12;8.00;99.90
18658;DHT22;9458;50.942;5.074;2022-12-07T15:40:40;8.00;99.90
18658;DHT22;9458;50.942;5.074;2022-12-07T15:43:09;8.00;99.90
18658;DHT22;9458;50.942;5.074;2022-12-07T15:45:59;7.90;99.90
18658;DHT22;9458;50.942;5.074;2022-12-07T15:48:27;7.90;99.90
18658;DHT22;9458;50.942;5.074;2022-12-07T15:51:02;7.90;99.90
18658;DHT22;9458;50.942;5.074;2022-12-07T15:53:30;7.80;99.90
18658;DHT22;9458;50.942;5.074;2022-12-07T15:55:58;7.80;99.90
18658;DHT22;9458;50.942;5.074;2022-12-07T15:58:26;7.70;99.90
18658;DHT22;9458;50.942;5.074;2022-12-07T16:00:53;7.70;99.90
18658;DHT22;9458;50.942;5.074;2022-12-07T16:03:21;7.60;99.90
18658;DHT22;9458;50.942;5.074;2022-12-07T16:05:50;7.60;99.90
18658;DHT22;9458;50.942;5.074;2022-12-07T16:08:19;7.50;99.90
18658;DHT22;9458;50.942;5.074;2022-12-07T16:10:47;7.50;99.90
18658;DHT22;9458;50.942;5.074;2022-12-07T16:13:14;7.50;99.90
18658;DHT22;9458;50.942;5.074;2022-12-07T16:15:42;7.50;99.90
18658;DHT22;9458;50.942;5.074;2022-12-07T16:18:10;7.40;99.90
18658;DHT22;9458;50.942;5.074;2022-12-07T16:20:40;7.40;99.90
18658;DHT22;9458;50.942;5.074;2022-12-07T16:23:11;7.50;99.90
18658;DHT22;9458;50.942;5.074;2022-12-07T16:25:39;7.40;99.90
18658;DHT22;9458;50.942;5.074;2022-12-07T16:28:08;7.50;99.90
18658;DHT22;9458;50.942;5.074;2022-12-07T16:30:36;7.40;99.90
18658;DHT22;9458;50.942;5.074;2022-12-07T16:33:04;7.50;99.90
18658;DHT22;9458;50.942;5.074;2022-12-07T16:35:32;7.50;99.90
18658;DHT22;9458;50.942;5.074;2022-12-07T16:37:59;7.40;99.90
18658;DHT22;9458;50.942;5.074;2022-12-07T16:40:28;7.50;99.90
18658;DHT22;9458;50.942;5.074;2022-12-07T16:42:57;7.40;99.90
18658;DHT22;9458;50.942;5.074;2022-12-07T16:45:25;7.40;99.90
18658;DHT22;9458;50.942;5.074;2022-12-07T16:47:54;7.40;99.90
18658;DHT22;9458;50.942;5.074;2022-12-07T16:50:22;7.40;99.90
18658;DHT22;9458;50.942;5.074;2022-12-07T16:52:50;7.40;99.90
18658;DHT22;9458;50.942;5.074;2022-12-07T16:55:17;7.30;99.90